sensor_id;sensor_type;location;lat;lon;timestamp;temperature;humidity
30001;DHT22;16845;48.670;9.000;2023-03-08T00:00:42;3.20;99.90
30001;DHT22;16845;48.670;9.000;2023-03-08T00:03:12;3.20;99.90
30001;DHT22;16845;48.670;9.000;2023-03-08T00:05:41;3.20;99.90
30001;DHT22;16845;48.670;9.000;2023-03-08T00:08:09;3.20;99.90
30001;DHT22;16845;48.670;9.000;2023-03-08T00:10:37;3.10;99.90
30001;DHT22;16845;48.670;9.000;2023-03-08T00:13:04;3.20;99.90
30001;DHT22;16845;48.670;9.000;2023-03-08T00:15:35;3.20;99.90
30001;DHT22;16845;48.670;9.000;2023-03-08T00:18:03;3.20;99.90
30001;DHT22;16845;48.670;9.000;2023-03-08T00:20:31;3.20;99.90
30001;DHT22;16845;48.670;9.000;2023-03-08T00:22:59;3.30;99.90
30001;DHT22;16845;48.670;9.000;2023-03-08T00:25:27;3.30;99.90
30001;DHT22;16845;48.670;9.000;2023-03-08T00:27:55;3.20;99.90
30001;DHT22;16845;48.670;9.000;2023-03-08T00:30:22;3.20;99.90
30001;DHT22;16845;48.670;9.000;2023-03-08T00:32:52;3.10;99.90
30001;DHT22;16845;48.670;9.000;2023-03-08T00:35:20;3.00;99.90
30001;DHT22;16845;48.670;9.000;2023-03-08T00:37:48;3.00;99.90
30001;DHT22;16845;48.670;9.000;2023-03-08T00:40:16;3.00;99.90
30001;DHT22;16845;48.670;9.000;2023-03-08T00:42:44;2.90;99.90
30001;DHT22;16845;48.670;9.000;2023-03-08T00:45:12;2.80;99.90
30001;DHT22;16845;48.670;9.000;2023-03-08T00:47:40;2.90;99.90
30001;DHT22;16845;48.670;9.000;2023-03-08T00:50:10;2.80;99.90
30001;DHT22;16845;48.670;9.000;2023-03-08T00:52:38;2.80;99.90
30001;DHT22;16845;48.670;9.000;2023-03-08T00:55:06;2.70;99.90
30001;DHT22;16845;48.670;9.000;2023-03-08T00:57:34;2.70;99.90
30001;DHT22;16845;48.670;9.000;2023-03-08T01:00:02;2.60;99.90
30001;DHT22;16845;48.670;9.000;2023-03-08T01:02:33;2.60;99.90
30001;DHT22;16845;48.670;9.000;2023-03-08T01:05:01;2.60;99.90
30001;DHT22;16845;48.670;9.000;2023-03-08T01:07:30;2.50;99.90
30001;DHT22;16845;48.670;9.000;2023-03-08T01:09:58;2.50;99.90
30001;DHT22;16845;48.670;9.000;2023-03-08T01:12:27;2.50;99.90
30001;DHT22;16845;48.670;9.000;2023-03-08T01:14:54;2.40;99.90
30001;DHT22;16845;48.670;9.000;2023-03-08T01:17:22;2.40;99.90
30001;DHT22;16845;48.670;9.000;2023-03-08T01:19:50;2.40;99.90
30001;DHT22;16845;48.670;9.000;2023-03-08T01:22:18;2.40;99.90
30001;DHT22;16845;48.670;9.000;2023-03-08T01:24:50;2.40;99.90
30001;DHT22;16845;48.670;9.000;2023-03-08T01:27:18;2.40;99.90
30001;DHT22;16845;48.670;9.000;2023-03-08T01:29:45;2.40;99.90
30001;DHT22;16845;48.670;9.000;2023-03-08T01:32:14;2.40;99.90
30001;DHT22;16845;48.670;9.000;2023-03-08T01:34:41;2.40;99.90
30001;DHT22;16845;48.670;9.000;2023-03-08T01:37:09;2.30;99.90
30001;DHT22;16845;48.670;9.000;2023-03-08T01:39:37;2.30;99.90
30001;DHT22;16845;48.670;9.000;2023-03-08T01:42:07;2.30;99.90
30001;DHT22;16845;48.670;9.000;2023-03-08T01:44:49;2.30;99.90
30001;DHT22;16845;48.670;9.000;2023-03-08T01:47:19;2.30;99.90
30001;DHT22;16845;48.670;9.000;2023-03-08T01:49:47;2.30;99.90
30001;DHT22;16845;48.670;9.000;2023-03-08T01:52:17;2.30;99.90
30001;DHT22;16845;48.670;9.000;2023-03-08T01:54:47;2.20;99.90
30001;DHT22;16845;48.670;9.000;2023-03-08T01:57:21;2.10;99.90
30001;DHT22;16845;48.670;9.000;2023-03-08T01:59:50;2.10;99.90
30001;DHT22;16845;48.670;9.000;2023-03-08T02:02:23;2.10;99.90
30001;DHT22;16845;48.670;9.000;2023-03-08T02:04:54;2.00;99.90
30001;DHT22;16845;48.670;9.000;2023-03-08T02:07:22;2.00;99.90
30001;DHT22;16845;48.670;9.000;2023-03-08T02:09:50;2.00;99.90
30001;DHT22;16845;48.670;9.000;2023-03-08T02:12:20;1.90;99.90
30001;DHT22;16845;48.670;9.000;2023-03-08T02:14:49;2.00;99.90
30001;DHT22;16845;48.670;9.000;2023-03-08T02:17:17;2.00;99.90
30001;DHT22;16845;48.670;9.000;2023-03-08T02:19:48;2.00;99.90
30001;DHT22;16845;48.670;9.000;2023-03-08T02:22:19;2.10;99.90
30001;DHT22;16845;48.670;9.000;2023-03-08T02:24:49;2.10;99.90
30001;DHT22;16845;48.670;9.000;2023-03-08T02:27:20;2.10;99.90
30001;DHT22;16845;48.670;9.000;2023-03-08T02:29:49;2.10;99.90
30001;DHT22;16845;48.670;9.000;2023-03-08T02:32:17;2.20;99.90
30001;DHT22;16845;48.670;9.000;2023-03-08T02:34:45;2.20;99.90
30001;DHT22;16845;48.670;9.000;2023-03-08T02:37:13;2.30;99.90
30001;DHT22;16845;48.670;9.000;2023-03-08T02:39:41;2.30;99.90
30001;DHT22;16845;48.670;9.000;2023-03-08T02:42:10;2.30;99.90
30001;DHT22;16845;48.670;9.000;2023-03-08T02:44:38;2.40;99.90
30001;DHT22;16845;48.670;9.000;2023-03-08T02:47:06;2.40;99.90
30001;DHT22;16845;48.670;9.000;2023-03-08T02:49:34;2.40;99.90
30001;DHT22;16845;48.670;9.000;2023-03-08T02:52:02;2.40;99.90
30001;DHT22;16845;48.670;9.000;2023-03-08T02:54:30;2.50;99.90
30001;DHT22;16845;48.670;9.000;2023-03-08T02:56:58;2.50;99.90
30001;DHT22;16845;48.670;9.000;2023-03-08T02:59:27;2.60;99.90
30001;DHT22;16845;48.670;9.000;2023-03-08T03:01:56;2.60;99.90
30001;DHT22;16845;48.670;9.000;2023-03-08T03:04:29;2.60;99.90
30001;DHT22;16845;48.670;9.000;2023-03-08T03:06:58;2.50;99.90
30001;DHT22;16845;48.670;9.000;2023-03-08T03:09:26;2.60;99.90
30001;DHT22;16845;48.670;9.000;2023-03-08T03:11:55;2.60;99.90
30001;DHT22;16845;48.670;9.000;2023-03-08T03:14:25;2.70;99.90
30001;DHT22;16845;48.670;9.000;2023-03-08T03:16:55;2.70;99.90
30001;DHT22;16845;48.670;9.000;2023-03-08T03:19:22;2.70;99.90
30001;DHT22;16845;48.670;9.000;2023-03-08T03:21:50;2.70;99.90
30001;DHT22;16845;48.670;9.000;2023-03-08T03:24:18;2.80;99.90
30001;DHT22;16845;48.670;9.000;2023-03-08T03:26:49;2.70;99.90
30001;DHT22;16845;48.670;9.000;2023-03-08T03:29:17;2.60;99.90
30001;DHT22;16845;48.670;9.000;2023-03-08T03:31:45;2.60;99.90
30001;DHT22;16845;48.670;9.000;2023-03-08T03:34:15;2.60;99.90
30001;DHT22;16845;48.670;9.000;2023-03-08T03:36:43;2.60;99.90
30001;DHT22;16845;48.670;9.000;2023-03-08T03:39:11;2.60;99.90
30001;DHT22;16845;48.670;9.000;2023-03-08T03:41:39;2.60;99.90
30001;DHT22;16845;48.670;9.000;2023-03-08T03:44:06;2.50;99.90
30001;DHT22;16845;48.670;9.000;2023-03-08T03:46:34;2.40;99.90
30001;DHT22;16845;48.670;9.000;2023-03-08T03:49:02;2.40;99.90
30001;DHT22;16845;48.670;9.000;2023-03-08T03:51:32;2.40;99.90
30001;DHT22;16845;48.670;9.000;2023-03-08T03:53:59;2.40;99.90
30001;DHT22;16845;48.670;9.000;2023-03-08T03:56:28;2.30;99.90
30001;DHT22;16845;48.670;9.000;2023-03-08T03:58:56;2.40;99.90
30001;DHT22;16845;48.670;9.000;2023-03-08T04:01:25;2.30;99.90
30001;DHT22;16845;48.670;9.000;2023-03-08T04:03:54;2.20;99.90
30001;DHT22;16845;48.670;9.000;2023-03-08T04:06:24;2.20;99.90
30001;DHT22;16845;48.670;9.000;2023-03-08T04:08:57;2.30;99.90
30001;DHT22;16845;48.670;9.000;2023-03-08T04:11:27;2.30;99.90
30001;DHT22;16845;48.670;9.000;2023-03-08T04:13:56;2.20;99.90
30001;DHT22;16845;48.670;9.000;2023-03-08T04:16:26;2.30;99.90
30001;DHT22;16845;48.670;9.000;2023-03-08T04:18:56;2.20;99.90
30001;DHT22;16845;48.670;9.000;2023-03-08T04:21:25;2.20;99.90
30001;DHT22;16845;48.670;9.000;2023-03-08T04:23:55;2.20;99.90
30001;DHT22;16845;48.670;9.000;2023-03-08T04:26:26;2.20;99.90
30001;DHT22;16845;48.670;9.000;2023-03-08T04:28:54;2.20;99.90
30001;DHT22;16845;48.670;9.000;2023-03-08T04:31:24;2.20;99.90
30001;DHT22;16845;48.670;9.000;2023-03-08T04:33:53;2.20;99.90
30001;DHT22;16845;48.670;9.000;2023-03-08T04:36:21;2.30;99.90
30001;DHT22;16845;48.670;9.000;2023-03-08T04:38:50;2.30;99.90
30001;DHT22;16845;48.670;9.000;2023-03-08T04:41:19;2.30;99.90
30001;DHT22;16845;48.670;9.000;2023-03-08T04:43:48;2.20;99.90
30001;DHT22;16845;48.670;9.000;2023-03-08T04:46:18;2.30;99.90
30001;DHT22;16845;48.670;9.000;2023-03-08T04:48:46;2.40;99.90
30001;DHT22;16845;48.670;9.000;2023-03-08T04:51:15;2.30;99.90
30001;DHT22;16845;48.670;9.000;2023-03-08T04:53:43;2.30;99.90
30001;DHT22;16845;48.670;9.000;2023-03-08T04:56:13;2.40;99.90
30001;DHT22;16845;48.670;9.000;2023-03-08T04:58:43;2.50;99.90
30001;DHT22;16845;48.670;9.000;2023-03-08T05:01:12;2.50;99.90
30001;DHT22;16845;48.670;9.000;2023-03-08T05:03:41;2.60;99.90
30001;DHT22;16845;48.670;9.000;2023-03-08T05:06:10;2.60;99.90
30001;DHT22;16845;48.670;9.000;2023-03-08T05:08:40;2.60;99.90
30001;DHT22;16845;48.670;9.000;2023-03-08T05:11:08;2.60;99.90
30001;DHT22;16845;48.670;9.000;2023-03-08T05:13:37;2.70;99.90
30001;DHT22;16845;48.670;9.000;2023-03-08T05:16:07;2.70;99.90
30001;DHT22;16845;48.670;9.000;2023-03-08T05:18:35;2.70;99.90
30001;DHT22;16845;48.670;9.000;2023-03-08T05:21:04;2.60;99.90
30001;DHT22;16845;48.670;9.000;2023-03-08T05:23:33;2.70;99.90
30001;DHT22;16845;48.670;9.000;2023-03-08T05:26:03;2.70;99.90
30001;DHT22;16845;48.670;9.000;2023-03-08T05:28:34;2.70;99.90
30001;DHT22;16845;48.670;9.000;2023-03-08T05:31:04;2.70;99.90
30001;DHT22;16845;48.670;9.000;2023-03-08T05:33:34;2.70;99.90
30001;DHT22;16845;48.670;9.000;2023-03-08T05:36:03;2.70;99.90
30001;DHT22;16845;48.670;9.000;2023-03-08T05:38:32;2.80;99.90
30001;DHT22;16845;48.670;9.000;2023-03-08T05:41:00;2.80;99.90
30001;DHT22;16845;48.670;9.000;2023-03-08T05:43:28;2.80;99.90
30001;DHT22;16845;48.670;9.000;2023-03-08T05:45:58;2.80;99.90
30001;DHT22;16845;48.670;9.000;2023-03-08T05:48:28;2.90;99.90
30001;DHT22;16845;48.670;9.000;2023-03-08T05:50:57;2.80;99.90
30001;DHT22;16845;48.670;9.000;2023-03-08T05:53:25;2.90;99.90
30001;DHT22;16845;48.670;9.000;2023-03-08T05:55:53;2.90;99.90
30001;DHT22;16845;48.670;9.000;2023-03-08T05:58:21;2.90;99.90
30001;DHT22;16845;48.670;9.000;2023-03-08T06:00:49;2.90;99.90
30001;DHT22;16845;48.670;9.000;2023-03-08T06:03:17;2.90;99.90
30001;DHT22;16845;48.670;9.000;2023-03-08T06:05:45;2.90;99.90
30001;DHT22;16845;48.670;9.000;2023-03-08T06:08:14;2.90;99.90
30001;DHT22;16845;48.670;9.000;2023-03-08T06:10:42;3.00;99.90
30001;DHT22;16845;48.670;9.000;2023-03-08T06:13:10;3.00;99.90
30001;DHT22;16845;48.670;9.000;2023-03-08T06:15:38;3.00;99.90
30001;DHT22;16845;48.670;9.000;2023-03-08T06:18:06;3.00;99.90
30001;DHT22;16845;48.670;9.000;2023-03-08T06:20:34;3.00;99.90
30001;DHT22;16845;48.670;9.000;2023-03-08T06:23:01;3.00;99.90
30001;DHT22;16845;48.670;9.000;2023-03-08T06:25:31;3.10;99.90
30001;DHT22;16845;48.670;9.000;2023-03-08T06:27:58;3.10;99.90
30001;DHT22;16845;48.670;9.000;2023-03-08T06:30:26;3.20;99.90
30001;DHT22;16845;48.670;9.000;2023-03-08T06:32:54;3.20;99.90
30001;DHT22;16845;48.670;9.000;2023-03-08T06:35:22;3.20;99.90
30001;DHT22;16845;48.670;9.000;2023-03-08T06:37:50;3.30;99.90
30001;DHT22;16845;48.670;9.000;2023-03-08T06:40:18;3.20;99.90
30001;DHT22;16845;48.670;9.000;2023-03-08T06:42:47;3.30;99.90
30001;DHT22;16845;48.670;9.000;2023-03-08T06:45:15;3.40;99.90
30001;DHT22;16845;48.670;9.000;2023-03-08T06:47:43;3.40;99.90
30001;DHT22;16845;48.670;9.000;2023-03-08T06:50:11;3.50;99.90
30001;DHT22;16845;48.670;9.000;2023-03-08T06:52:39;3.50;99.90
30001;DHT22;16845;48.670;9.000;2023-03-08T06:55:08;3.50;99.90
30001;DHT22;16845;48.670;9.000;2023-03-08T06:57:37;3.50;99.90
30001;DHT22;16845;48.670;9.000;2023-03-08T07:00:08;3.60;99.90
30001;DHT22;16845;48.670;9.000;2023-03-08T07:02:37;3.60;99.90
30001;DHT22;16845;48.670;9.000;2023-03-08T07:05:05;3.60;99.90
30001;DHT22;16845;48.670;9.000;2023-03-08T07:07:33;3.70;99.90
30001;DHT22;16845;48.670;9.000;2023-03-08T07:10:03;3.70;99.90
30001;DHT22;16845;48.670;9.000;2023-03-08T07:12:31;3.70;99.90
30001;DHT22;16845;48.670;9.000;2023-03-08T07:14:58;3.70;99.90
30001;DHT22;16845;48.670;9.000;2023-03-08T07:17:28;3.80;99.90
30001;DHT22;16845;48.670;9.000;2023-03-08T07:19:57;3.90;99.90
30001;DHT22;16845;48.670;9.000;2023-03-08T07:22:25;3.80;99.90
30001;DHT22;16845;48.670;9.000;2023-03-08T07:24:53;3.90;99.90
30001;DHT22;16845;48.670;9.000;2023-03-08T07:27:20;4.00;99.90
30001;DHT22;16845;48.670;9.000;2023-03-08T07:29:48;4.00;99.90
30001;DHT22;16845;48.670;9.000;2023-03-08T07:32:16;4.00;99.90
30001;DHT22;16845;48.670;9.000;2023-03-08T07:34:46;4.00;99.90
30001;DHT22;16845;48.670;9.000;2023-03-08T07:37:15;4.00;99.90
30001;DHT22;16845;48.670;9.000;2023-03-08T07:39:43;4.10;99.90
30001;DHT22;16845;48.670;9.000;2023-03-08T07:42:11;4.10;99.90
30001;DHT22;16845;48.670;9.000;2023-03-08T07:44:39;4.10;99.90
30001;DHT22;16845;48.670;9.000;2023-03-08T07:47:07;4.00;99.90
30001;DHT22;16845;48.670;9.000;2023-03-08T07:49:35;4.10;99.90
30001;DHT22;16845;48.670;9.000;2023-03-08T07:52:05;4.10;99.90
30001;DHT22;16845;48.670;9.000;2023-03-08T07:54:33;4.10;99.90
30001;DHT22;16845;48.670;9.000;2023-03-08T07:57:01;4.10;99.90
30001;DHT22;16845;48.670;9.000;2023-03-08T07:59:29;4.20;99.90
30001;DHT22;16845;48.670;9.000;2023-03-08T08:01:57;4.20;99.90
30001;DHT22;16845;48.670;9.000;2023-03-08T08:04:25;4.30;99.90
30001;DHT22;16845;48.670;9.000;2023-03-08T08:06:53;4.20;99.90
30001;DHT22;16845;48.670;9.000;2023-03-08T08:09:22;4.20;99.90
30001;DHT22;16845;48.670;9.000;2023-03-08T08:11:50;4.20;99.90
30001;DHT22;16845;48.670;9.000;2023-03-08T08:14:18;4.30;99.90
30001;DHT22;16845;48.670;9.000;2023-03-08T08:16:46;4.40;99.90
30001;DHT22;16845;48.670;9.000;2023-03-08T08:19:14;4.30;99.90
30001;DHT22;16845;48.670;9.000;2023-03-08T08:21:42;4.50;99.90
30001;DHT22;16845;48.670;9.000;2023-03-08T08:24:10;4.70;99.90
30001;DHT22;16845;48.670;9.000;2023-03-08T08:26:40;4.70;99.90
30001;DHT22;16845;48.670;9.000;2023-03-08T08:29:08;4.70;99.90
30001;DHT22;16845;48.670;9.000;2023-03-08T08:31:36;4.70;99.90
30001;DHT22;16845;48.670;9.000;2023-03-08T08:34:04;4.70;99.90
30001;DHT22;16845;48.670;9.000;2023-03-08T08:36:32;4.70;99.90
30001;DHT22;16845;48.670;9.000;2023-03-08T08:39:00;4.80;99.90
30001;DHT22;16845;48.670;9.000;2023-03-08T08:41:28;4.80;99.90
30001;DHT22;16845;48.670;9.000;2023-03-08T08:43:59;5.00;99.90
30001;DHT22;16845;48.670;9.000;2023-03-08T08:46:27;5.00;99.90
30001;DHT22;16845;48.670;9.000;2023-03-08T08:48:57;4.90;99.90
30001;DHT22;16845;48.670;9.000;2023-03-08T08:51:25;5.20;99.90
30001;DHT22;16845;48.670;9.000;2023-03-08T08:53:54;5.30;99.90
30001;DHT22;16845;48.670;9.000;2023-03-08T08:56:23;5.40;99.90
30001;DHT22;16845;48.670;9.000;2023-03-08T08:58:54;5.40;99.90
30001;DHT22;16845;48.670;9.000;2023-03-08T09:01:25;5.50;99.90
30001;DHT22;16845;48.670;9.000;2023-03-08T09:03:54;5.50;99.90
30001;DHT22;16845;48.670;9.000;2023-03-08T09:06:23;5.50;99.90
30001;DHT22;16845;48.670;9.000;2023-03-08T09:08:52;5.50;99.90
30001;DHT22;16845;48.670;9.000;2023-03-08T09:11:22;5.40;99.90
30001;DHT22;16845;48.670;9.000;2023-03-08T09:13:50;5.20;99.90
30001;DHT22;16845;48.670;9.000;2023-03-08T09:16:19;5.20;99.90
30001;DHT22;16845;48.670;9.000;2023-03-08T09:18:49;5.20;99.90
30001;DHT22;16845;48.670;9.000;2023-03-08T09:21:17;5.20;99.90
30001;DHT22;16845;48.670;9.000;2023-03-08T09:23:45;5.30;99.90
30001;DHT22;16845;48.670;9.000;2023-03-08T09:26:13;5.40;99.90
30001;DHT22;16845;48.670;9.000;2023-03-08T09:28:41;5.50;99.90
30001;DHT22;16845;48.670;9.000;2023-03-08T09:31:10;5.70;99.90
30001;DHT22;16845;48.670;9.000;2023-03-08T09:33:42;5.80;99.90
30001;DHT22;16845;48.670;9.000;2023-03-08T09:36:11;6.00;99.90
30001;DHT22;16845;48.670;9.000;2023-03-08T09:38:39;6.00;99.90
30001;DHT22;16845;48.670;9.000;2023-03-08T09:41:21;6.10;99.90
30001;DHT22;16845;48.670;9.000;2023-03-08T09:44:03;6.20;99.90
30001;DHT22;16845;48.670;9.000;2023-03-08T09:46:35;6.40;99.90
30001;DHT22;16845;48.670;9.000;2023-03-08T09:49:11;6.40;99.90
30001;DHT22;16845;48.670;9.000;2023-03-08T09:51:47;6.50;99.90
30001;DHT22;16845;48.670;9.000;2023-03-08T09:54:17;6.50;99.90
30001;DHT22;16845;48.670;9.000;2023-03-08T09:56:49;6.60;99.90
30001;DHT22;16845;48.670;9.000;2023-03-08T09:59:22;6.70;99.90
30001;DHT22;16845;48.670;9.000;2023-03-08T10:01:57;6.70;99.90
30001;DHT22;16845;48.670;9.000;2023-03-08T10:04:45;6.70;99.90
30001;DHT22;16845;48.670;9.000;2023-03-08T10:07:27;6.70;99.90
30001;DHT22;16845;48.670;9.000;2023-03-08T10:10:10;6.80;99.90
30001;DHT22;16845;48.670;9.000;2023-03-08T10:12:48;6.80;99.90
30001;DHT22;16845;48.670;9.000;2023-03-08T10:15:21;6.90;99.90
30001;DHT22;16845;48.670;9.000;2023-03-08T10:17:53;6.90;99.90
30001;DHT22;16845;48.670;9.000;2023-03-08T10:20:23;7.00;99.90
30001;DHT22;16845;48.670;9.000;2023-03-08T10:22:57;7.10;99.90
30001;DHT22;16845;48.670;9.000;2023-03-08T10:25:26;7.10;99.90
30001;DHT22;16845;48.670;9.000;2023-03-08T10:27:58;7.00;99.90
30001;DHT22;16845;48.670;9.000;2023-03-08T10:30:30;7.00;99.90
30001;DHT22;16845;48.670;9.000;2023-03-08T10:33:00;7.20;99.90
30001;DHT22;16845;48.670;9.000;2023-03-08T10:35:33;7.30;99.90
30001;DHT22;16845;48.670;9.000;2023-03-08T10:38:04;7.40;99.90
30001;DHT22;16845;48.670;9.000;2023-03-08T10:40:32;7.60;99.90
30001;DHT22;16845;48.670;9.000;2023-03-08T10:43:03;7.70;99.90
30001;DHT22;16845;48.670;9.000;2023-03-08T10:45:32;7.90;99.90
30001;DHT22;16845;48.670;9.000;2023-03-08T10:48:01;8.10;99.90
30001;DHT22;16845;48.670;9.000;2023-03-08T10:50:34;8.20;99.90
30001;DHT22;16845;48.670;9.000;2023-03-08T10:53:15;8.40;99.90
30001;DHT22;16845;48.670;9.000;2023-03-08T10:55:45;8.50;99.90
30001;DHT22;16845;48.670;9.000;2023-03-08T10:58:28;8.60;99.90
30001;DHT22;16845;48.670;9.000;2023-03-08T11:00:59;8.70;99.90
30001;DHT22;16845;48.670;9.000;2023-03-08T11:03:27;8.80;99.90
30001;DHT22;16845;48.670;9.000;2023-03-08T11:05:57;8.90;99.90
30001;DHT22;16845;48.670;9.000;2023-03-08T11:08:29;9.00;99.90
30001;DHT22;16845;48.670;9.000;2023-03-08T11:11:02;9.20;99.90
30001;DHT22;16845;48.670;9.000;2023-03-08T11:13:32;9.40;99.90
30001;DHT22;16845;48.670;9.000;2023-03-08T11:16:10;9.50;99.90
30001;DHT22;16845;48.670;9.000;2023-03-08T11:18:49;9.70;99.90
30001;DHT22;16845;48.670;9.000;2023-03-08T11:21:24;9.80;99.90
30001;DHT22;16845;48.670;9.000;2023-03-08T11:24:06;9.90;99.90
30001;DHT22;16845;48.670;9.000;2023-03-08T11:26:46;9.90;99.90
30001;DHT22;16845;48.670;9.000;2023-03-08T11:29:24;10.10;99.90
30001;DHT22;16845;48.670;9.000;2023-03-08T11:31:59;10.20;99.90
30001;DHT22;16845;48.670;9.000;2023-03-08T11:34:58;10.20;99.90
30001;DHT22;16845;48.670;9.000;2023-03-08T11:37:34;10.10;99.90
30001;DHT22;16845;48.670;9.000;2023-03-08T11:40:22;10.10;99.90
30001;DHT22;16845;48.670;9.000;2023-03-08T11:43:06;10.20;99.90
30001;DHT22;16845;48.670;9.000;2023-03-08T11:45:43;10.20;99.90
30001;DHT22;16845;48.670;9.000;2023-03-08T11:48:37;10.20;99.90
30001;DHT22;16845;48.670;9.000;2023-03-08T11:51:11;10.10;99.90
30001;DHT22;16845;48.670;9.000;2023-03-08T11:53:49;10.00;99.90
30001;DHT22;16845;48.670;9.000;2023-03-08T11:56:31;10.10;99.90
30001;DHT22;16845;48.670;9.000;2023-03-08T11:59:05;10.20;99.90
30001;DHT22;16845;48.670;9.000;2023-03-08T12:01:40;10.20;99.90
30001;DHT22;16845;48.670;9.000;2023-03-08T12:04:14;10.20;99.90
30001;DHT22;16845;48.670;9.000;2023-03-08T12:06:45;10.30;99.90
30001;DHT22;16845;48.670;9.000;2023-03-08T12:09:19;10.40;99.90
30001;DHT22;16845;48.670;9.000;2023-03-08T12:11:54;10.50;99.90
30001;DHT22;16845;48.670;9.000;2023-03-08T12:14:27;10.60;99.90
30001;DHT22;16845;48.670;9.000;2023-03-08T12:17:04;10.70;99.90
30001;DHT22;16845;48.670;9.000;2023-03-08T12:19:39;10.70;99.90
30001;DHT22;16845;48.670;9.000;2023-03-08T12:22:20;10.90;99.90
30001;DHT22;16845;48.670;9.000;2023-03-08T12:24:54;10.90;99.90
30001;DHT22;16845;48.670;9.000;2023-03-08T12:27:29;11.00;99.90
30001;DHT22;16845;48.670;9.000;2023-03-08T12:30:12;11.10;99.90
30001;DHT22;16845;48.670;9.000;2023-03-08T12:32:43;11.30;99.90
30001;DHT22;16845;48.670;9.000;2023-03-08T12:35:31;11.40;99.90
30001;DHT22;16845;48.670;9.000;2023-03-08T12:38:01;11.30;99.90
30001;DHT22;16845;48.670;9.000;2023-03-08T12:40:37;11.40;99.90
30001;DHT22;16845;48.670;9.000;2023-03-08T12:43:10;11.50;99.90
30001;DHT22;16845;48.670;9.000;2023-03-08T12:45:40;11.30;99.90
30001;DHT22;16845;48.670;9.000;2023-03-08T12:48:21;11.30;99.90
30001;DHT22;16845;48.670;9.000;2023-03-08T12:50:58;11.30;99.90
30001;DHT22;16845;48.670;9.000;2023-03-08T12:53:36;11.20;99.90
30001;DHT22;16845;48.670;9.000;2023-03-08T12:56:15;11.00;99.90
30001;DHT22;16845;48.670;9.000;2023-03-08T12:58:52;11.00;99.90
30001;DHT22;16845;48.670;9.000;2023-03-08T13:01:32;11.00;99.90
30001;DHT22;16845;48.670;9.000;2023-03-08T13:04:02;11.00;99.90
30001;DHT22;16845;48.670;9.000;2023-03-08T13:06:53;10.90;99.90
30001;DHT22;16845;48.670;9.000;2023-03-08T13:09:26;11.30;99.90
30001;DHT22;16845;48.670;9.000;2023-03-08T13:12:00;11.70;99.90
30001;DHT22;16845;48.670;9.000;2023-03-08T13:14:40;11.40;99.90
30001;DHT22;16845;48.670;9.000;2023-03-08T13:17:31;11.30;99.90
30001;DHT22;16845;48.670;9.000;2023-03-08T13:20:02;11.70;99.90
30001;DHT22;16845;48.670;9.000;2023-03-08T13:22:41;11.80;99.90
30001;DHT22;16845;48.670;9.000;2023-03-08T13:25:19;11.60;99.90
30001;DHT22;16845;48.670;9.000;2023-03-08T13:27:50;11.30;99.90
30001;DHT22;16845;48.670;9.000;2023-03-08T13:30:23;11.10;99.90
30001;DHT22;16845;48.670;9.000;2023-03-08T13:32:51;11.00;99.90
30001;DHT22;16845;48.670;9.000;2023-03-08T13:35:20;10.90;99.90
30001;DHT22;16845;48.670;9.000;2023-03-08T13:37:52;11.00;99.90
30001;DHT22;16845;48.670;9.000;2023-03-08T13:40:22;11.00;99.90
30001;DHT22;16845;48.670;9.000;2023-03-08T13:42:54;11.00;99.90
30001;DHT22;16845;48.670;9.000;2023-03-08T13:45:24;11.30;99.90
30001;DHT22;16845;48.670;9.000;2023-03-08T13:47:53;11.50;99.90
30001;DHT22;16845;48.670;9.000;2023-03-08T13:50:26;11.80;99.90
30001;DHT22;16845;48.670;9.000;2023-03-08T13:52:55;12.30;99.90
30001;DHT22;16845;48.670;9.000;2023-03-08T13:55:28;13.20;99.90
30001;DHT22;16845;48.670;9.000;2023-03-08T13:57:57;14.20;99.90
30001;DHT22;16845;48.670;9.000;2023-03-08T14:00:29;14.90;99.90
30001;DHT22;16845;48.670;9.000;2023-03-08T14:02:59;15.10;99.90
30001;DHT22;16845;48.670;9.000;2023-03-08T14:05:29;14.60;99.90
30001;DHT22;16845;48.670;9.000;2023-03-08T14:07:59;14.80;99.90
30001;DHT22;16845;48.670;9.000;2023-03-08T14:10:35;14.70;99.90
30001;DHT22;16845;48.670;9.000;2023-03-08T14:13:04;14.20;99.90
30001;DHT22;16845;48.670;9.000;2023-03-08T14:15:37;13.90;99.90
30001;DHT22;16845;48.670;9.000;2023-03-08T14:18:06;13.40;99.90
30001;DHT22;16845;48.670;9.000;2023-03-08T14:20:35;13.20;99.90
30001;DHT22;16845;48.670;9.000;2023-03-08T14:23:03;13.40;99.90
30001;DHT22;16845;48.670;9.000;2023-03-08T14:25:31;13.60;99.90
30001;DHT22;16845;48.670;9.000;2023-03-08T14:27:59;13.40;99.90
30001;DHT22;16845;48.670;9.000;2023-03-08T14:30:28;13.90;99.90
30001;DHT22;16845;48.670;9.000;2023-03-08T14:33:02;14.30;99.90
30001;DHT22;16845;48.670;9.000;2023-03-08T14:35:33;14.20;99.90
30001;DHT22;16845;48.670;9.000;2023-03-08T14:38:02;14.10;99.90
30001;DHT22;16845;48.670;9.000;2023-03-08T14:40:46;14.30;99.90
30001;DHT22;16845;48.670;9.000;2023-03-08T14:43:17;14.00;99.90
30001;DHT22;16845;48.670;9.000;2023-03-08T14:45:51;13.50;99.90
30001;DHT22;16845;48.670;9.000;2023-03-08T14:48:23;13.30;99.90
30001;DHT22;16845;48.670;9.000;2023-03-08T14:50:55;13.20;99.90
30001;DHT22;16845;48.670;9.000;2023-03-08T14:53:29;13.00;99.90
30001;DHT22;16845;48.670;9.000;2023-03-08T14:55:58;12.70;99.90
30001;DHT22;16845;48.670;9.000;2023-03-08T14:58:30;12.70;99.90
30001;DHT22;16845;48.670;9.000;2023-03-08T15:01:00;12.50;99.90
30001;DHT22;16845;48.670;9.000;2023-03-08T15:03:30;12.10;99.90
30001;DHT22;16845;48.670;9.000;2023-03-08T15:06:04;11.80;99.90
30001;DHT22;16845;48.670;9.000;2023-03-08T15:08:34;11.70;99.90
30001;DHT22;16845;48.670;9.000;2023-03-08T15:11:02;11.50;99.90
30001;DHT22;16845;48.670;9.000;2023-03-08T15:13:30;11.50;99.90
30001;DHT22;16845;48.670;9.000;2023-03-08T15:15:57;11.40;99.90
30001;DHT22;16845;48.670;9.000;2023-03-08T15:18:25;11.20;99.90
30001;DHT22;16845;48.670;9.000;2023-03-08T15:20:55;11.10;99.90
30001;DHT22;16845;48.670;9.000;2023-03-08T15:23:26;11.20;99.90
30001;DHT22;16845;48.670;9.000;2023-03-08T15:25:54;11.20;99.90
30001;DHT22;16845;48.670;9.000;2023-03-08T15:28:23;11.10;99.90
30001;DHT22;16845;48.670;9.000;2023-03-08T15:30:52;11.00;99.90
30001;DHT22;16845;48.670;9.000;2023-03-08T15:33:21;11.00;99.90
30001;DHT22;16845;48.670;9.000;2023-03-08T15:35:49;11.00;99.90
30001;DHT22;16845;48.670;9.000;2023-03-08T15:38:19;11.10;99.90
30001;DHT22;16845;48.670;9.000;2023-03-08T15:40:48;11.10;99.90
30001;DHT22;16845;48.670;9.000;2023-03-08T15:43:16;11.10;99.90
30001;DHT22;16845;48.670;9.000;2023-03-08T15:45:44;11.10;99.90
30001;DHT22;16845;48.670;9.000;2023-03-08T15:48:13;11.10;99.90
30001;DHT22;16845;48.670;9.000;2023-03-08T15:50:42;11.10;99.90
30001;DHT22;16845;48.670;9.000;2023-03-08T15:53:11;11.20;99.90
30001;DHT22;16845;48.670;9.000;2023-03-08T15:55:56;11.20;99.90
30001;DHT22;16845;48.670;9.000;2023-03-08T15:58:24;11.20;99.90
30001;DHT22;16845;48.670;9.000;2023-03-08T16:00:52;11.20;99.90
30001;DHT22;16845;48.670;9.000;2023-03-08T16:03:20;11.20;99.90